PWSweather.com
Personal Weather Stations
Station Observations
SHAHALMS1
Eftra, Falkenberg, HA

EftraFalkenberg, HA

Lat: 56.85, Lon: 12.65

Elevation: 140

Station Type:

http://hem.passagen.se/risarp101

High Low Average
Temperature 56.7°F13.7°C 39.7°F4.3°C 47.0°F8.3°C
Dew Point 52.5°F11.4°C 33.1°F0.6°C 42.5°F5.8°C
Winds 20.3 mph 32.7 kmh Calm Calm 10.0 mph E16.1 kmh E
Wind Gusts 39.0 mph62.8 kmh -- 21.0 mph33.8 kmh
Humidity 91% 77% 84%
Pressure 29.50 in999.0 mb 29.00 in982.1 mb -
Precipitation 0.09 in2.3 mm - -
Hour Temp Dew Point Humidity Winds Wind Gusts Pressure Precip Precip Rate Daily Precip Total
12:00 AM 39.7°F4.3°C 33.1°F0.6°C 77% 6.8 mph ENE10.9 kmh ENE 18.3 mph29.5 kmh 29.50 in999.0 mb 0.00 in0.0 mm 0.00 in0.0 mm 0.00 in0.0 mm
12:15 AM 39.7°F4.3°C 33.4°F0.8°C 78% 7.2 mph ENE11.6 kmh ENE 16.5 mph26.6 kmh 29.50 in999.0 mb 0.00 in0.0 mm 0.00 in0.0 mm 0.00 in0.0 mm
12:30 AM 39.9°F4.4°C 33.9°F1.1°C 79% 7.1 mph NE11.4 kmh NE 19.3 mph31.1 kmh 29.47 in998.0 mb 0.00 in0.0 mm 0.00 in0.0 mm 0.00 in0.0 mm
12:45 AM 39.9°F4.4°C 33.9°F1.1°C 79% 7.8 mph ENE12.6 kmh ENE 21.1 mph34.0 kmh 29.47 in998.0 mb 0.00 in0.0 mm 0.00 in0.0 mm 0.00 in0.0 mm
01:00 AM 39.9°F4.4°C 33.9°F1.1°C 79% 8.4 mph ENE13.5 kmh ENE 17.5 mph28.2 kmh 29.47 in998.0 mb 0.00 in0.0 mm 0.00 in0.0 mm 0.00 in0.0 mm
01:15 AM 39.9°F4.4°C 34.2°F1.2°C 80% 8.8 mph ENE14.2 kmh ENE 20.4 mph32.8 kmh 29.45 in997.3 mb 0.00 in0.0 mm 0.00 in0.0 mm 0.00 in0.0 mm
01:30 AM 39.9°F4.4°C 34.2°F1.2°C 80% 8.2 mph E13.2 kmh E 20.4 mph32.8 kmh 29.45 in997.3 mb 0.00 in0.0 mm 0.00 in0.0 mm 0.00 in0.0 mm
01:45 AM 40.1°F4.5°C 34.4°F1.3°C 80% 9.1 mph ENE14.6 kmh ENE 24.3 mph39.1 kmh 29.45 in997.3 mb 0.00 in0.0 mm 0.00 in0.0 mm 0.00 in0.0 mm
02:00 AM 40.1°F4.5°C 34.4°F1.3°C 80% 8.9 mph ENE14.3 kmh ENE 23.3 mph37.5 kmh 29.41 in995.9 mb 0.00 in0.0 mm 0.00 in0.0 mm 0.00 in0.0 mm
02:15 AM 40.1°F4.5°C 34.4°F1.3°C 80% 10.2 mph ENE16.4 kmh ENE 21.1 mph34.0 kmh 29.36 in994.2 mb 0.00 in0.0 mm 0.00 in0.0 mm 0.00 in0.0 mm
02:30 AM 40.1°F4.5°C 34.4°F1.3°C 80% 12.1 mph ENE19.5 kmh ENE 31.9 mph51.3 kmh 29.39 in995.3 mb 0.00 in0.0 mm 0.00 in0.0 mm 0.00 in0.0 mm
02:45 AM 40.1°F4.5°C 34.4°F1.3°C 80% 10.3 mph ENE16.6 kmh ENE 21.5 mph34.6 kmh 29.39 in995.3 mb 0.00 in0.0 mm 0.00 in0.0 mm 0.00 in0.0 mm
03:00 AM 40.3°F4.6°C 34.6°F1.4°C 80% 12.4 mph E20.0 kmh E 27.6 mph44.4 kmh 29.36 in994.2 mb 0.00 in0.0 mm 0.00 in0.0 mm 0.00 in0.0 mm
03:15 AM 40.5°F4.7°C 34.8°F1.6°C 80% 12.3 mph ENE19.8 kmh ENE 22.9 mph36.9 kmh 29.33 in993.2 mb 0.00 in0.0 mm 0.00 in0.0 mm 0.00 in0.0 mm
03:30 AM 40.5°F4.7°C 34.8°F1.6°C 80% 14.9 mph E24.0 kmh E 36.9 mph59.4 kmh 29.33 in993.2 mb 0.00 in0.0 mm 0.00 in0.0 mm 0.00 in0.0 mm
03:45 AM 40.5°F4.7°C 34.5°F1.4°C 79% 13.0 mph ENE20.9 kmh ENE 31.1 mph50.1 kmh 29.33 in993.2 mb 0.00 in0.0 mm 0.00 in0.0 mm 0.00 in0.0 mm
04:00 AM 40.6°F4.8°C 34.6°F1.4°C 79% 12.4 mph ENE20.0 kmh ENE 29.7 mph47.8 kmh 29.33 in993.2 mb 0.00 in0.0 mm 0.00 in0.0 mm 0.00 in0.0 mm
04:15 AM 40.6°F4.8°C 35.0°F1.7°C 80% 15.9 mph ENE25.6 kmh ENE 36.1 mph58.1 kmh 29.27 in991.2 mb 0.00 in0.0 mm 0.00 in0.0 mm 0.00 in0.0 mm
04:30 AM 40.6°F4.8°C 35.0°F1.7°C 80% 14.4 mph E23.2 kmh E 33.6 mph54.1 kmh 29.27 in991.2 mb 0.00 in0.0 mm 0.00 in0.0 mm 0.00 in0.0 mm
04:45 AM 40.6°F4.8°C 35.6°F2.0°C 82% 14.1 mph ENE22.7 kmh ENE 31.9 mph51.3 kmh 29.24 in990.2 mb 0.00 in0.0 mm 0.00 in0.0 mm 0.00 in0.0 mm
05:00 AM 40.6°F4.8°C 35.6°F2.0°C 82% 13.0 mph E20.9 kmh E 25.1 mph40.4 kmh 29.27 in991.2 mb 0.00 in0.0 mm 0.00 in0.0 mm 0.00 in0.0 mm
05:15 AM 40.8°F4.9°C 36.1°F2.3°C 83% 14.2 mph E22.9 kmh E 28.3 mph45.5 kmh 29.24 in990.2 mb 0.00 in0.0 mm 0.00 in0.0 mm 0.00 in0.0 mm
05:30 AM 41.0°F5.0°C 36.2°F2.3°C 83% 17.0 mph ENE27.4 kmh ENE 36.5 mph58.7 kmh 29.24 in990.2 mb 0.00 in0.0 mm 0.00 in0.0 mm 0.00 in0.0 mm
05:45 AM 41.2°F5.1°C 36.4°F2.4°C 83% 16.8 mph E27.0 kmh E 38.3 mph61.6 kmh 29.21 in989.2 mb 0.00 in0.0 mm 0.00 in0.0 mm 0.00 in0.0 mm
06:00 AM 41.4°F5.2°C 36.6°F2.6°C 83% 14.6 mph E23.5 kmh E 35.1 mph56.5 kmh 29.21 in989.2 mb 0.00 in0.0 mm 0.00 in0.0 mm 0.00 in0.0 mm
06:15 AM 41.5°F5.3°C 36.8°F2.7°C 83% 15.1 mph E24.3 kmh E 39.0 mph62.8 kmh 29.18 in988.1 mb 0.00 in0.0 mm 0.00 in0.0 mm 0.00 in0.0 mm
06:30 AM 41.7°F5.4°C 36.9°F2.7°C 83% 17.8 mph E28.6 kmh E 36.5 mph58.7 kmh 29.21 in989.2 mb 0.00 in0.0 mm 0.00 in0.0 mm 0.00 in0.0 mm
06:45 AM 41.9°F5.5°C 37.1°F2.8°C 83% 16.0 mph E25.7 kmh E 26.8 mph43.1 kmh 29.18 in988.1 mb 0.00 in0.0 mm 0.00 in0.0 mm 0.00 in0.0 mm
07:00 AM 42.3°F5.7°C 37.8°F3.2°C 84% 16.4 mph E26.4 kmh E 32.6 mph52.5 kmh 29.18 in988.1 mb 0.00 in0.0 mm 0.00 in0.0 mm 0.00 in0.0 mm
07:15 AM 42.4°F5.8°C 37.9°F3.3°C 84% 19.6 mph E31.5 kmh E 35.8 mph57.6 kmh 29.18 in988.1 mb 0.00 in0.0 mm 0.00 in0.0 mm 0.00 in0.0 mm
07:30 AM 42.6°F5.9°C 38.1°F3.4°C 84% 17.9 mph E28.8 kmh E 26.5 mph42.6 kmh 29.15 in987.1 mb 0.00 in0.0 mm 0.00 in0.0 mm 0.00 in0.0 mm
07:45 AM 42.8°F6.0°C 38.3°F3.5°C 84% 20.3 mph E32.7 kmh E 30.4 mph48.9 kmh 29.15 in987.1 mb 0.00 in0.0 mm 0.00 in0.0 mm 0.00 in0.0 mm
08:00 AM 43.2°F6.2°C 38.7°F3.7°C 84% 16.1 mph ENE25.9 kmh ENE 20.0 mph32.2 kmh 29.12 in986.1 mb 0.00 in0.0 mm 0.00 in0.0 mm 0.00 in0.0 mm
08:15 AM 43.3°F6.3°C 38.8°F3.8°C 84% 15.3 mph E24.6 kmh E 22.5 mph36.2 kmh 29.15 in987.1 mb 0.00 in0.0 mm 0.00 in0.0 mm 0.00 in0.0 mm
08:30 AM 43.7°F6.5°C 39.2°F4.0°C 84% 10.8 mph ENE17.4 kmh ENE 20.4 mph32.8 kmh 29.12 in986.1 mb 0.00 in0.0 mm 0.00 in0.0 mm 0.00 in0.0 mm
08:45 AM 44.2°F6.8°C 39.7°F4.3°C 84% 19.3 mph E31.1 kmh E 31.5 mph50.7 kmh 29.12 in986.1 mb 0.00 in0.0 mm 0.00 in0.0 mm 0.00 in0.0 mm
09:00 AM 44.6°F7.0°C 40.1°F4.5°C 84% 16.3 mph E26.2 kmh E 31.1 mph50.1 kmh 29.12 in986.1 mb 0.00 in0.0 mm 0.00 in0.0 mm 0.00 in0.0 mm
09:15 AM 45.0°F7.2°C 40.4°F4.7°C 84% 17.0 mph E27.4 kmh E 37.6 mph60.5 kmh 29.12 in986.1 mb 0.00 in0.0 mm 0.00 in0.0 mm 0.00 in0.0 mm
09:30 AM 45.1°F7.3°C 40.6°F4.8°C 84% 18.0 mph E29.0 kmh E 37.2 mph59.9 kmh 29.12 in986.1 mb 0.00 in0.0 mm 0.00 in0.0 mm 0.00 in0.0 mm
09:45 AM 45.3°F7.4°C 40.8°F4.9°C 84% 14.2 mph E22.9 kmh E 27.2 mph43.8 kmh 29.12 in986.1 mb 0.00 in0.0 mm 0.00 in0.0 mm 0.00 in0.0 mm
10:00 AM 45.5°F7.5°C 40.9°F4.9°C 84% 14.5 mph E23.3 kmh E 26.8 mph43.1 kmh 29.09 in985.1 mb 0.00 in0.0 mm 0.00 in0.0 mm 0.00 in0.0 mm
10:15 AM 45.9°F7.7°C 41.3°F5.2°C 84% 11.9 mph E19.2 kmh E 25.4 mph40.9 kmh 29.09 in985.1 mb 0.00 in0.0 mm 0.00 in0.0 mm 0.00 in0.0 mm
10:30 AM 46.2°F7.9°C 42.0°F5.6°C 85% 14.4 mph E23.2 kmh E 28.3 mph45.5 kmh 29.09 in985.1 mb 0.00 in0.0 mm 0.00 in0.0 mm 0.00 in0.0 mm
10:45 AM 46.6°F8.1°C 42.3°F5.7°C 85% 11.4 mph E18.3 kmh E 27.2 mph43.8 kmh 29.12 in986.1 mb 0.00 in0.0 mm 0.00 in0.0 mm 0.00 in0.0 mm
11:00 AM 47.1°F8.4°C 43.1°F6.2°C 86% 11.0 mph E17.7 kmh E 27.6 mph44.4 kmh 29.09 in985.1 mb 0.00 in0.0 mm 0.00 in0.0 mm 0.00 in0.0 mm
11:15 AM 47.5°F8.6°C 43.5°F6.4°C 86% 11.4 mph E18.3 kmh E 24.7 mph39.8 kmh 29.09 in985.1 mb 0.00 in0.0 mm 0.00 in0.0 mm 0.00 in0.0 mm
11:30 AM 48.0°F8.9°C 44.3°F6.8°C 87% 12.1 mph E19.5 kmh E 25.1 mph40.4 kmh 29.06 in984.1 mb 0.00 in0.0 mm 0.00 in0.0 mm 0.00 in0.0 mm
11:45 AM 48.2°F9.0°C 44.5°F6.9°C 87% 12.9 mph E20.8 kmh E 26.8 mph43.1 kmh 29.06 in984.1 mb 0.00 in0.0 mm 0.00 in0.0 mm 0.00 in0.0 mm
12:00 PM 48.6°F9.2°C 44.9°F7.2°C 87% 11.4 mph E18.3 kmh E 21.1 mph34.0 kmh 29.03 in983.1 mb 0.00 in0.0 mm 0.00 in0.0 mm 0.00 in0.0 mm
12:15 PM 48.7°F9.3°C 45.3°F7.4°C 88% 12.8 mph E20.6 kmh E 24.7 mph39.8 kmh 29.00 in982.1 mb 0.00 in0.0 mm 0.00 in0.0 mm 0.00 in0.0 mm
12:30 PM 49.3°F9.6°C 46.2°F7.9°C 89% 11.4 mph E18.3 kmh E 20.8 mph33.5 kmh 29.03 in983.1 mb 0.00 in0.0 mm 0.00 in0.0 mm 0.00 in0.0 mm
12:45 PM 50.0°F10.0°C 46.9°F8.3°C 89% 12.7 mph E20.4 kmh E 31.1 mph50.1 kmh 29.03 in983.1 mb 0.00 in0.0 mm 0.00 in0.0 mm 0.00 in0.0 mm
01:00 PM 50.5°F10.3°C 47.4°F8.6°C 89% 12.7 mph E20.4 kmh E 27.9 mph44.9 kmh 29.03 in983.1 mb 0.00 in0.0 mm 0.00 in0.0 mm 0.00 in0.0 mm
01:15 PM 50.9°F10.5°C 47.8°F8.8°C 89% 11.4 mph E18.3 kmh E 23.3 mph37.5 kmh 29.03 in983.1 mb 0.00 in0.0 mm 0.00 in0.0 mm 0.00 in0.0 mm
01:30 PM 51.4°F10.8°C 48.6°F9.2°C 90% 11.2 mph E18.0 kmh E 24.7 mph39.8 kmh 29.03 in983.1 mb 0.00 in0.0 mm 0.00 in0.0 mm 0.00 in0.0 mm
01:45 PM 52.0°F11.1°C 49.1°F9.5°C 90% 12.8 mph E20.6 kmh E 24.7 mph39.8 kmh 29.03 in983.1 mb 0.00 in0.0 mm 0.00 in0.0 mm 0.00 in0.0 mm
02:00 PM 52.3°F11.3°C 49.5°F9.7°C 90% 11.9 mph E19.2 kmh E 23.6 mph38.0 kmh 29.00 in982.1 mb 0.00 in0.0 mm 0.00 in0.0 mm 0.00 in0.0 mm
02:15 PM 52.7°F11.5°C 49.8°F9.9°C 90% 11.3 mph E18.2 kmh E 21.1 mph34.0 kmh 29.00 in982.1 mb 0.00 in0.0 mm 0.00 in0.0 mm 0.00 in0.0 mm
02:30 PM 53.2°F11.8°C 50.4°F10.2°C 90% 10.4 mph E16.7 kmh E 20.0 mph32.2 kmh 29.00 in982.1 mb 0.00 in0.0 mm 0.00 in0.0 mm 0.00 in0.0 mm
02:45 PM 53.8°F12.1°C 50.9°F10.5°C 90% 9.1 mph E14.6 kmh E 16.8 mph27.0 kmh 29.00 in982.1 mb 0.00 in0.0 mm 0.00 in0.0 mm 0.00 in0.0 mm
03:00 PM 54.1°F12.3°C 51.0°F10.6°C 89% 10.1 mph E16.3 kmh E 20.4 mph32.8 kmh 29.00 in982.1 mb 0.00 in0.0 mm 0.00 in0.0 mm 0.00 in0.0 mm
03:15 PM 54.5°F12.5°C 51.3°F10.7°C 89% 7.2 mph E11.6 kmh E 14.0 mph22.5 kmh 29.00 in982.1 mb 0.00 in0.0 mm 0.00 in0.0 mm 0.00 in0.0 mm
03:30 PM 54.9°F12.7°C 51.7°F10.9°C 89% 7.6 mph E12.2 kmh E 14.7 mph23.7 kmh 29.00 in982.1 mb 0.00 in0.0 mm 0.00 in0.0 mm 0.00 in0.0 mm
03:46 PM 54.9°F12.7°C 51.4°F10.8°C 88% 5.5 mph E8.9 kmh E 6.8 mph10.9 kmh 29.00 in982.1 mb 0.00 in0.0 mm 0.00 in0.0 mm 0.00 in0.0 mm
04:00 PM 55.0°F12.8°C 51.5°F10.8°C 88% 8.4 mph E13.5 kmh E 16.8 mph27.0 kmh 29.00 in982.1 mb 0.00 in0.0 mm 0.00 in0.0 mm 0.00 in0.0 mm
04:15 PM 55.2°F12.9°C 51.4°F10.8°C 87% 7.8 mph E12.6 kmh E 16.5 mph26.6 kmh 29.03 in983.1 mb 0.00 in0.0 mm 0.00 in0.0 mm 0.00 in0.0 mm
04:30 PM 56.7°F13.7°C 52.5°F11.4°C 86% 5.6 mph ESE9.0 kmh ESE 16.5 mph26.6 kmh 29.03 in983.1 mb 0.00 in0.0 mm 0.00 in0.0 mm 0.00 in0.0 mm
04:45 PM 56.7°F13.7°C 51.6°F10.9°C 83% 7.1 mph E11.4 kmh E 15.4 mph24.8 kmh 29.03 in983.1 mb 0.00 in0.0 mm 0.00 in0.0 mm 0.00 in0.0 mm
05:00 PM 56.3°F13.5°C 51.2°F10.7°C 83% 4.5 mph ENE7.2 kmh ENE 10.7 mph17.2 kmh 29.03 in983.1 mb 0.00 in0.0 mm 0.00 in0.0 mm 0.00 in0.0 mm
05:15 PM 55.6°F13.1°C 50.5°F10.3°C 83% 3.6 mph E5.8 kmh E 9.3 mph15.0 kmh 29.03 in983.1 mb 0.00 in0.0 mm 0.00 in0.0 mm 0.00 in0.0 mm
05:30 PM 54.9°F12.7°C 50.1°F10.1°C 84% 0.4 mph SE0.6 kmh SE 4.7 mph7.6 kmh 29.06 in984.1 mb 0.00 in0.0 mm 0.00 in0.0 mm 0.00 in0.0 mm
05:45 PM 54.3°F12.4°C 49.6°F9.8°C 84% 3.1 mph E5.0 kmh E 9.7 mph15.6 kmh 29.03 in983.1 mb 0.00 in0.0 mm 0.00 in0.0 mm 0.00 in0.0 mm
06:00 PM 54.1°F12.3°C 50.0°F10.0°C 86% 4.9 mph ESE7.9 kmh ESE 15.7 mph25.3 kmh 29.03 in983.1 mb 0.00 in0.0 mm 0.00 in0.0 mm 0.00 in0.0 mm
06:15 PM 54.5°F12.5°C 50.4°F10.2°C 86% 3.9 mph ESE6.3 kmh ESE 8.9 mph14.3 kmh 29.06 in984.1 mb 0.00 in0.0 mm 0.00 in0.0 mm 0.00 in0.0 mm
06:30 PM 54.3°F12.4°C 50.5°F10.3°C 87% 2.9 mph SSE4.7 kmh SSE 10.0 mph16.1 kmh 29.06 in984.1 mb 0.00 in0.0 mm 0.00 in0.0 mm 0.00 in0.0 mm
06:45 PM 54.1°F12.3°C 50.4°F10.2°C 87% 4.3 mph SSE6.9 kmh SSE 17.2 mph27.7 kmh 29.09 in985.1 mb 0.00 in0.0 mm 0.00 in0.0 mm 0.00 in0.0 mm
07:00 PM 54.3°F12.4°C 50.5°F10.3°C 87% 3.7 mph S6.0 kmh S 9.7 mph15.6 kmh 29.09 in985.1 mb 0.00 in0.0 mm 0.00 in0.0 mm 0.00 in0.0 mm
07:15 PM 54.0°F12.2°C 49.9°F9.9°C 86% 4.3 mph S6.9 kmh S 10.0 mph16.1 kmh 29.09 in985.1 mb 0.00 in0.0 mm 0.00 in0.0 mm 0.00 in0.0 mm
07:30 PM 53.2°F11.8°C 48.2°F9.0°C 83% 7.3 mph S11.7 kmh S 17.5 mph28.2 kmh 29.09 in985.1 mb 0.00 in0.0 mm 0.00 in0.0 mm 0.00 in0.0 mm
07:45 PM 52.3°F11.3°C 46.4°F8.0°C 80% 5.9 mph S9.5 kmh S 13.6 mph21.9 kmh 29.09 in985.1 mb 0.00 in0.0 mm 0.00 in0.0 mm 0.00 in0.0 mm
08:00 PM 51.4°F10.8°C 45.8°F7.7°C 81% 4.7 mph S7.6 kmh S 10.4 mph16.7 kmh 29.09 in985.1 mb 0.00 in0.0 mm 0.00 in0.0 mm 0.00 in0.0 mm
08:15 PM 50.5°F10.3°C 44.9°F7.2°C 81% 3.9 mph S6.3 kmh S 11.5 mph18.5 kmh 29.09 in985.1 mb 0.00 in0.0 mm 0.00 in0.0 mm 0.00 in0.0 mm
08:30 PM 48.9°F9.4°C 43.0°F6.1°C 80% 2.7 mph SSE4.3 kmh SSE 8.9 mph14.3 kmh 29.06 in984.1 mb 0.00 in0.0 mm 0.00 in0.0 mm 0.00 in0.0 mm
08:45 PM 47.7°F8.7°C 42.4°F5.8°C 82% 1.1 mph S1.8 kmh S 6.8 mph10.9 kmh 29.12 in986.1 mb 0.00 in0.0 mm 0.00 in0.0 mm 0.00 in0.0 mm
09:00 PM 46.8°F8.2°C 41.9°F5.5°C 83% 3.8 mph ESE6.1 kmh ESE 9.3 mph15.0 kmh 29.06 in984.1 mb 0.00 in0.0 mm 0.00 in0.0 mm 0.00 in0.0 mm
09:15 PM 46.0°F7.8°C 41.5°F5.3°C 84% 1.5 mph SE2.4 kmh SE 6.4 mph10.3 kmh 29.09 in985.1 mb 0.00 in0.0 mm 0.00 in0.0 mm 0.00 in0.0 mm
09:30 PM 47.5°F8.6°C 43.8°F6.6°C 87% 3.2 mph SE5.1 kmh SE 11.5 mph18.5 kmh 29.12 in986.1 mb 0.00 in0.0 mm 0.00 in0.0 mm 0.00 in0.0 mm
09:45 PM 47.3°F8.5°C 43.3°F6.3°C 86% 0.6 mph ESE1.0 kmh ESE 5.4 mph8.7 kmh 29.12 in986.1 mb 0.00 in0.0 mm 0.00 in0.0 mm 0.00 in0.0 mm
10:00 PM 47.3°F8.5°C 43.3°F6.3°C 86% Calm Calm -- 29.09 in985.1 mb 0.00 in0.0 mm 0.00 in0.0 mm 0.00 in0.0 mm
10:15 PM 47.3°F8.5°C 43.6°F6.4°C 87% 2.9 mph SE4.7 kmh SE 9.3 mph15.0 kmh 29.12 in986.1 mb 0.00 in0.0 mm 0.00 in0.0 mm 0.00 in0.0 mm
10:30 PM 47.3°F8.5°C 43.6°F6.4°C 87% 1.2 mph ESE1.9 kmh ESE 6.8 mph10.9 kmh 29.12 in986.1 mb 0.00 in0.0 mm 0.00 in0.0 mm 0.00 in0.0 mm
10:45 PM 47.7°F8.7°C 44.0°F6.7°C 87% 0.4 mph N0.6 kmh N 5.4 mph8.7 kmh 29.12 in986.1 mb 0.05 in1.3 mm 0.20 in5.1 mm 0.05 in1.3 mm
11:00 PM 47.7°F8.7°C 44.0°F6.7°C 87% 0.3 mph NNE0.5 kmh NNE 3.2 mph5.1 kmh 29.12 in986.1 mb 0.05 in1.3 mm 0.00 in0.0 mm 0.05 in1.3 mm
11:15 PM 48.2°F9.0°C 44.8°F7.1°C 88% 2.8 mph E4.5 kmh E 9.7 mph15.6 kmh 29.09 in985.1 mb 0.05 in1.3 mm 0.00 in0.0 mm 0.05 in1.3 mm
11:30 PM 48.9°F9.4°C 46.1°F7.8°C 90% 6.1 mph E9.8 kmh E 16.8 mph27.0 kmh 29.09 in985.1 mb 0.05 in1.3 mm 0.00 in0.0 mm 0.05 in1.3 mm
11:45 PM 49.6°F9.8°C 47.1°F8.4°C 91% 9.5 mph ESE15.3 kmh ESE 17.5 mph28.2 kmh 29.09 in985.1 mb 0.05 in1.3 mm 0.00 in0.0 mm 0.09 in2.3 mm